Time;durP1;ratioP1;P1;durP2;ratioP2;P2;SDS_P1;SDS_P2;PMS_P1;PMS_P2;Temp;Humidity;BMP_temperature;BMP_pressure;BME280_temperature;BME280_humidity;BME280_pressure;Samples;Min_cycle;Max_cycle;Signal;HPM_P1;HPM_P2
2021/07/13 00:01:31;;;;;;;16.90;12.00;;;16.40;99.90;;;;;;4972844;28;20058;-80
2021/07/13 00:03:57;;;;;;;17.73;11.40;;;16.40;99.90;;;;;;4956617;28;20116;-80
2021/07/13 00:06:24;;;;;;;16.55;10.55;;;16.40;99.90;;;;;;4956862;28;20429;-80
2021/07/13 00:08:53;;;;;;;14.65;12.27;;;16.40;99.90;;;;;;4974022;28;20035;-79
2021/07/13 00:11:19;;;;;;;18.52;11.65;;;16.40;99.90;;;;;;4956373;28;20428;-79
2021/07/13 00:13:45;;;;;;;14.93;10.93;;;16.40;99.90;;;;;;4956592;28;20027;-79
2021/07/13 00:16:12;;;;;;;14.93;11.30;;;16.40;99.90;;;;;;4956571;28;20584;-79
2021/07/13 00:18:38;;;;;;;15.07;11.27;;;16.40;99.90;;;;;;4956518;28;20027;-79
2021/07/13 00:21:08;;;;;;;13.77;11.45;;;16.40;99.90;;;;;;4973514;28;20419;-79
2021/07/13 00:23:37;;;;;;;13.25;10.98;;;16.40;99.90;;;;;;4956387;28;20094;-79
2021/07/13 00:26:04;;;;;;;14.75;11.18;;;16.40;99.90;;;;;;4956579;28;20481;-80
2021/07/13 00:28:31;;;;;;;19.17;11.68;;;16.40;99.90;;;;;;4973900;28;20035;-78
2021/07/13 00:30:57;;;;;;;20.48;11.35;;;16.50;99.90;;;;;;4973884;28;20031;-79
2021/07/13 00:33:22;;;;;;;15.90;10.75;;;16.50;99.90;;;;;;4973920;28;20037;-79
2021/07/13 00:35:48;;;;;;;15.65;11.38;;;16.50;99.90;;;;;;4956397;28;20436;-80
2021/07/13 00:38:14;;;;;;;16.00;11.30;;;16.60;99.90;;;;;;4973799;28;20027;-79
2021/07/13 00:40:40;;;;;;;14.20;10.95;;;16.60;99.90;;;;;;4972524;28;20470;-80
2021/07/13 00:43:05;;;;;;;16.52;12.05;;;16.60;99.90;;;;;;4973787;28;20147;-80
2021/07/13 00:45:31;;;;;;;15.90;12.07;;;16.60;99.90;;;;;;4973678;28;20027;-80
2021/07/13 00:47:57;;;;;;;15.02;10.65;;;16.60;99.90;;;;;;4956446;28;20019;-80
2021/07/13 00:50:25;;;;;;;15.68;11.90;;;16.60;99.90;;;;;;4956500;28;20066;-79
2021/07/13 00:52:51;;;;;;;17.02;11.95;;;16.50;99.90;;;;;;4956098;28;20054;-80
2021/07/13 00:55:17;;;;;;;16.95;11.02;;;16.50;99.90;;;;;;4973766;28;20113;-79
2021/07/13 00:57:44;;;;;;;16.08;12.00;;;16.50;99.90;;;;;;4956246;28;20026;-79
2021/07/13 01:00:12;;;;;;;16.38;11.27;;;16.40;99.90;;;;;;4956231;28;20027;-79
2021/07/13 01:02:39;;;;;;;14.35;10.25;;;16.40;99.90;;;;;;4956019;28;20110;-80
2021/07/13 01:05:10;;;;;;;16.52;11.88;;;16.40;99.90;;;;;;4956226;28;20489;-79
2021/07/13 01:08:00;;;;;;;14.98;11.25;;;16.40;99.90;;;;;;4956089;28;20025;-79
2021/07/13 01:10:40;;;;;;;15.77;12.32;;;16.40;99.90;;;;;;4956315;28;20023;-79
2021/07/13 01:13:30;;;;;;;18.48;12.85;;;16.40;99.90;;;;;;4973401;28;20031;-80
2021/07/13 01:16:48;;;;;;;16.50;12.85;;;16.40;99.90;;;;;;4973458;28;20041;-79
2021/07/13 01:19:34;;;;;;;19.52;13.95;;;16.40;99.90;;;;;;4879466;29;20037;-79
2021/07/13 01:22:07;;;;;;;18.50;13.35;;;16.40;99.90;;;;;;4879392;29;20031;-79
2021/07/13 01:25:03;;;;;;;17.38;13.02;;;16.40;99.90;;;;;;4939236;28;20105;-79
2021/07/13 01:27:53;;;;;;;19.10;13.20;;;16.40;99.90;;;;;;4958878;28;20089;-80
2021/07/13 01:30:23;;;;;;;20.20;13.45;;;16.40;99.90;;;;;;4976813;28;20039;-79
2021/07/13 01:32:53;;;;;;;21.75;13.95;;;16.40;99.90;;;;;;4959311;28;20026;-80
2021/07/13 01:35:26;;;;;;;19.38;14.02;;;16.40;99.90;;;;;;4959413;28;20110;-80
2021/07/13 01:37:52;;;;;;;;;;;16.30;99.90;;;;;;4959778;28;20023;-79
2021/07/13 01:40:19;;;;;;;22.13;13.23;;;16.30;99.90;;;;;;4976701;28;19913;-79
2021/07/13 01:42:46;;;;;;;15.18;12.07;;;16.20;99.90;;;;;;4959100;28;20125;-80
2021/07/13 01:45:12;;;;;;;20.10;13.50;;;16.20;99.90;;;;;;4959198;28;20027;-79
2021/07/13 01:47:39;;;;;;;23.08;14.10;;;16.20;99.90;;;;;;4959204;28;20534;-80
2021/07/13 01:50:08;;;;;;;23.88;14.82;;;16.10;99.90;;;;;;4959116;28;20117;-80
2021/07/13 01:52:35;;;;;;;19.80;13.93;;;16.10;99.90;;;;;;4976706;28;20019;-80
2021/07/13 01:55:03;;;;;;;22.70;14.88;;;16.10;99.90;;;;;;4976397;28;20035;-79
2021/07/13 01:57:31;;;;;;;21.23;14.90;;;16.10;99.90;;;;;;4959074;28;20027;-79
2021/07/13 01:59:59;;;;;;;23.65;14.15;;;16.10;99.90;;;;;;4958865;28;20093;-79
2021/07/13 02:02:27;;;;;;;22.58;13.95;;;16.10;99.90;;;;;;4958922;28;20445;-80
2021/07/13 02:04:55;;;;;;;22.38;14.68;;;16.00;99.90;;;;;;4958776;28;20026;-80
2021/07/13 02:07:23;;;;;;;22.52;15.50;;;16.10;99.90;;;;;;4976247;28;20027;-79
2021/07/13 02:09:49;;;;;;;19.25;14.48;;;16.00;99.90;;;;;;4958646;28;20019;-79
2021/07/13 02:12:17;;;;;;;20.58;14.43;;;16.00;99.90;;;;;;4976177;28;20026;-80
2021/07/13 02:14:43;;;;;;;24.20;14.85;;;16.00;99.90;;;;;;4958627;28;20030;-79
2021/07/13 02:17:09;;;;;;;23.45;15.40;;;16.00;99.90;;;;;;4958704;28;20022;-79
2021/07/13 02:19:35;;;;;;;26.60;14.90;;;16.00;99.90;;;;;;4958816;28;20490;-80
2021/07/13 02:22:01;;;;;;;21.38;14.82;;;16.00;99.90;;;;;;4975867;28;20027;-80
2021/07/13 02:24:26;;;;;;;19.92;14.52;;;16.00;99.90;;;;;;4958537;28;20366;-79
2021/07/13 02:27:18;;;;;;;22.73;14.65;;;16.00;99.90;;;;;;4958459;28;20057;-81
2021/07/13 02:29:53;;;;;;;23.33;16.10;;;16.00;99.90;;;;;;4957809;28;20034;-79
2021/07/13 02:32:46;;;;;;;20.45;14.55;;;15.90;99.90;;;;;;4958036;28;20025;-79
2021/07/13 02:35:13;;;;;;;25.58;15.95;;;15.90;99.90;;;;;;4975374;28;20384;-79
2021/07/13 02:37:41;;;;;;;25.60;15.77;;;15.90;99.90;;;;;;4975596;28;20023;-79
2021/07/13 02:40:11;;;;;;;25.08;16.77;;;15.90;99.90;;;;;;4975652;28;20125;-79
2021/07/13 02:42:41;;;;;;;25.48;16.13;;;15.90;99.90;;;;;;4957992;28;20511;-79
2021/07/13 02:45:07;;;;;;;29.17;16.88;;;15.80;99.90;;;;;;4975354;28;20031;-79
2021/07/13 02:47:34;;;;;;;30.42;18.45;;;15.80;99.90;;;;;;4957718;28;20015;-80
2021/07/13 02:50:02;;;;;;;31.27;18.27;;;15.80;99.90;;;;;;4958062;28;20027;-79
2021/07/13 02:52:31;;;;;;;32.30;19.10;;;15.80;99.90;;;;;;4957999;28;20030;-80
2021/07/13 02:55:08;;;;;;;29.80;19.42;;;15.90;99.90;;;;;;4975244;28;20057;-79
2021/07/13 02:57:34;;;;;;;26.95;18.02;;;15.80;99.90;;;;;;4975250;28;20133;-79
2021/07/13 03:00:01;;;;;;;28.80;18.58;;;15.90;99.90;;;;;;4957910;28;20058;-79
2021/07/13 03:02:27;;;;;;;27.45;17.80;;;15.90;99.90;;;;;;4957626;28;20022;-79
2021/07/13 03:04:54;;;;;;;29.63;18.17;;;15.90;99.90;;;;;;4957668;28;20023;-80
2021/07/13 03:07:20;;;;;;;30.17;18.70;;;16.00;99.90;;;;;;4957771;28;20095;-79
2021/07/13 03:09:47;;;;;;;26.90;17.70;;;16.00;99.90;;;;;;4957597;28;20033;-79
2021/07/13 03:12:14;;;;;;;29.10;16.77;;;16.00;99.90;;;;;;4975069;28;20481;-79
2021/07/13 03:14:42;;;;;;;32.60;20.23;;;16.10;99.90;;;;;;4957441;28;20027;-79
2021/07/13 03:17:10;;;;;;;33.28;20.08;;;16.10;99.90;;;;;;4957524;28;20029;-79
2021/07/13 03:19:36;;;;;;;30.35;19.63;;;16.20;99.90;;;;;;4974774;28;20428;-79
2021/07/13 03:22:04;;;;;;;35.13;20.25;;;16.20;99.90;;;;;;4957398;28;20019;-80
2021/07/13 03:24:31;;;;;;;30.25;19.52;;;16.30;99.90;;;;;;4974810;28;20485;-79
2021/07/13 03:26:59;;;;;;;31.73;19.80;;;16.30;99.90;;;;;;4974568;28;20034;-80
2021/07/13 03:29:25;;;;;;;32.90;18.70;;;16.40;99.90;;;;;;4974644;28;20488;-79
2021/07/13 03:31:52;;;;;;;33.45;20.63;;;16.40;99.90;;;;;;4974579;28;20477;-80
2021/07/13 03:34:18;;;;;;;40.75;20.80;;;16.50;99.90;;;;;;4974620;28;20025;-79
2021/07/13 03:36:47;;;;;;;35.05;20.20;;;16.50;99.90;;;;;;4957178;28;20015;-80
2021/07/13 03:39:14;;;;;;;39.97;19.45;;;16.60;99.90;;;;;;4957424;28;20038;-80
2021/07/13 03:41:41;;;;;;;33.17;19.73;;;16.60;99.90;;;;;;4957064;28;20023;-79
2021/07/13 03:44:07;;;;;;;30.92;18.77;;;16.70;99.90;;;;;;4956978;28;20547;-79
2021/07/13 03:46:37;;;;;;;34.60;18.75;;;16.70;99.90;;;;;;4956355;28;20026;-79
2021/07/13 03:49:05;;;;;;;35.10;21.08;;;16.70;99.90;;;;;;4974420;28;20114;-79
2021/07/13 03:51:46;;;;;;;42.80;21.80;;;16.80;99.90;;;;;;4957002;28;20555;-79
2021/07/13 03:54:14;;;;;;;41.00;21.17;;;16.80;99.90;;;;;;4974355;28;20481;-79
2021/07/13 03:56:41;;;;;;;40.40;20.67;;;16.80;99.90;;;;;;4974247;28;20061;-80
2021/07/13 03:59:08;;;;;;;42.50;22.35;;;16.90;99.90;;;;;;4957176;28;20037;-80
2021/07/13 04:01:34;;;;;;;44.15;22.05;;;17.00;99.90;;;;;;4974141;28;20023;-79
2021/07/13 04:04:00;;;;;;;43.85;21.52;;;16.90;99.90;;;;;;4956788;28;20122;-80
2021/07/13 04:06:27;;;;;;;45.78;23.23;;;17.00;99.90;;;;;;4956828;28;20022;-80
2021/07/13 04:08:52;;;;;;;46.40;21.98;;;17.00;99.90;;;;;;4974002;28;20031;-79
2021/07/13 04:11:18;;;;;;;49.08;23.67;;;17.10;99.90;;;;;;4974174;28;20053;-79
2021/07/13 04:13:44;;;;;;;57.53;25.60;;;17.00;99.90;;;;;;4974016;28;20027;-79
2021/07/13 04:16:10;;;;;;;41.78;21.27;;;17.10;99.90;;;;;;4956670;28;20416;-80
2021/07/13 04:18:36;;;;;;;48.55;22.25;;;17.10;99.90;;;;;;4956543;28;20473;-80
2021/07/13 04:21:02;;;;;;;45.70;23.17;;;17.10;99.90;;;;;;4956628;28;20085;-80
2021/07/13 04:23:27;;;;;;;51.03;24.27;;;17.10;99.90;;;;;;4956522;28;20089;-80
2021/07/13 04:25:53;;;;;;;51.55;24.98;;;17.20;99.90;;;;;;4973900;28;20110;-80
2021/07/13 04:28:19;;;;;;;52.17;24.27;;;17.20;99.90;;;;;;4956648;28;20027;-79
2021/07/13 04:30:45;;;;;;;59.45;27.25;;;17.20;99.90;;;;;;4972660;28;20373;-80
2021/07/13 04:33:10;;;;;;;55.20;26.00;;;17.30;99.90;;;;;;4956619;28;20041;-79
2021/07/13 04:35:36;;;;;;;47.28;22.80;;;17.30;99.90;;;;;;4956428;28;20023;-81
2021/07/13 04:38:01;;;;;;;48.00;24.33;;;17.30;99.90;;;;;;4956562;28;20037;-80
2021/07/13 04:40:27;;;;;;;51.70;23.90;;;17.40;99.90;;;;;;4972598;28;20484;-80
2021/07/13 04:42:53;;;;;;;44.95;23.48;;;17.40;99.90;;;;;;4956337;28;20058;-80
2021/07/13 04:45:19;;;;;;;46.42;23.45;;;17.40;99.90;;;;;;4972537;28;20086;-79
2021/07/13 04:47:44;;;;;;;45.90;20.75;;;17.40;99.90;;;;;;4972517;28;20019;-80
2021/07/13 04:50:11;;;;;;;42.50;21.58;;;17.50;99.90;;;;;;4973683;28;20038;-79
2021/07/13 04:52:36;;;;;;;39.75;21.15;;;17.50;99.90;;;;;;4973689;28;20074;-80
2021/07/13 04:55:04;;;;;;;42.30;20.70;;;17.50;99.90;;;;;;4956315;28;20019;-80
2021/07/13 04:57:30;;;;;;;36.22;20.05;;;17.50;99.90;;;;;;4956401;28;20086;-79
2021/07/13 04:59:55;;;;;;;41.97;20.55;;;17.50;99.90;;;;;;4976070;28;20023;-79
2021/07/13 05:02:21;;;;;;;37.40;20.60;;;17.50;99.90;;;;;;4960074;28;20034;-80
2021/07/13 05:04:47;;;;;;;34.13;20.30;;;17.60;99.90;;;;;;4977208;28;20026;-79
2021/07/13 05:07:13;;;;;;;33.72;19.42;;;17.60;99.90;;;;;;4977335;28;20070;-80
2021/07/13 05:09:39;;;;;;;38.20;21.17;;;17.70;99.90;;;;;;4977130;28;20117;-79
2021/07/13 05:12:05;;;;;;;33.38;19.58;;;17.70;99.90;;;;;;4959861;28;20023;-79
2021/07/13 05:14:31;;;;;;;31.13;17.73;;;17.80;99.90;;;;;;4977175;28;20027;-79
2021/07/13 05:16:56;;;;;;;29.75;17.30;;;17.80;99.90;;;;;;4976965;28;20122;-80
2021/07/13 05:19:22;;;;;;;33.67;19.17;;;17.80;99.90;;;;;;4977022;28;20022;-80
2021/07/13 05:22:00;;;;;;;27.67;16.17;;;17.90;99.90;;;;;;4959627;28;20481;-80
2021/07/13 05:24:26;;;;;;;26.65;16.80;;;17.90;99.90;;;;;;4959698;28;20468;-79
2021/07/13 05:26:52;;;;;;;30.00;18.27;;;18.00;99.90;;;;;;4976862;28;20058;-80
2021/07/13 05:29:18;;;;;;;26.25;16.80;;;18.20;99.90;;;;;;4977227;28;20038;-79
2021/07/13 05:31:45;;;;;;;25.98;16.70;;;18.20;99.90;;;;;;4976849;28;20022;-80
2021/07/13 05:34:10;;;;;;;23.50;15.80;;;18.30;99.90;;;;;;4976800;28;20031;-80
2021/07/13 05:36:36;;;;;;;32.97;17.95;;;18.30;99.90;;;;;;4976713;28;20149;-79
2021/07/13 05:39:05;;;;;;;24.67;16.13;;;18.30;99.90;;;;;;4959316;28;20019;-79
2021/07/13 05:41:30;;;;;;;26.95;17.08;;;18.50;99.90;;;;;;4959379;28;20019;-80
2021/07/13 05:43:57;;;;;;;20.58;15.13;;;18.60;99.90;;;;;;4976734;28;20370;-79
2021/07/13 05:46:23;;;;;;;26.63;17.80;;;18.70;99.90;;;;;;4959282;28;20045;-80
2021/07/13 05:48:48;;;;;;;24.63;17.38;;;18.70;99.90;;;;;;4959106;28;20424;-79
2021/07/13 05:51:14;;;;;;;31.85;16.50;;;18.80;99.90;;;;;;4976538;28;20027;-80
2021/07/13 05:53:40;;;;;;;22.77;15.45;;;18.90;99.90;;;;;;4976616;28;20055;-79
2021/07/13 05:56:07;;;;;;;21.85;14.63;;;18.90;99.90;;;;;;4976538;28;20023;-80
2021/07/13 05:58:34;;;;;;;23.92;16.23;;;18.90;99.90;;;;;;4976182;28;20026;-79
2021/07/13 06:00:59;;;;;;;27.35;15.68;;;19.00;99.90;;;;;;4976308;28;20023;-80
2021/07/13 06:03:25;;;;;;;26.55;17.17;;;18.90;99.90;;;;;;4976238;28;20038;-79
2021/07/13 06:05:51;;;;;;;22.45;15.70;;;19.00;99.90;;;;;;4958868;28;20110;-81
2021/07/13 06:08:16;;;;;;;23.30;16.00;;;19.00;99.90;;;;;;4958912;28;20030;-80
2021/07/13 06:10:42;;;;;;;23.92;16.08;;;19.10;99.90;;;;;;4975323;28;20031;-80
2021/07/13 06:13:08;;;;;;;21.90;15.35;;;19.20;99.90;;;;;;4958789;28;20110;-80
2021/07/13 06:15:34;;;;;;;17.77;14.65;;;19.30;99.90;;;;;;4958605;28;20508;-80
2021/07/13 06:17:59;;;;;;;27.17;15.30;;;19.50;99.90;;;;;;4958920;28;20056;-81
2021/07/13 06:20:25;;;;;;;24.98;15.88;;;19.60;99.90;;;;;;4958673;28;20065;-80
2021/07/13 06:22:50;;;;;;;20.80;15.35;;;19.70;99.90;;;;;;4958476;28;20066;-80
2021/07/13 06:25:16;;;;;;;19.65;14.77;;;19.80;99.90;;;;;;4958626;28;20420;-80
2021/07/13 06:27:42;;;;;;;21.92;14.95;;;20.00;99.90;;;;;;4958493;28;20066;-80
2021/07/13 06:30:09;;;;;;;17.67;13.27;;;20.20;99.90;;;;;;4958636;28;20038;-80
2021/07/13 06:32:35;;;;;;;17.20;12.88;;;20.40;99.90;;;;;;4975752;28;20098;-80
2021/07/13 06:35:01;;;;;;;16.60;13.32;;;20.40;99.90;;;;;;4975681;28;20058;-80
2021/07/13 06:37:27;;;;;;;17.50;12.27;;;20.60;99.90;;;;;;4975767;28;20369;-81
2021/07/13 06:39:53;;;;;;;14.80;12.98;;;20.80;99.90;;;;;;4958138;28;20465;-80
2021/07/13 06:42:18;;;;;;;16.35;12.27;;;20.90;99.90;;;;;;4958165;28;20027;-80
2021/07/13 06:44:44;;;;;;;16.02;12.60;;;20.90;99.90;;;;;;4975419;28;20531;-80
2021/07/13 06:47:10;;;;;;;13.85;11.52;;;20.90;99.90;;;;;;4958192;28;20019;-80
2021/07/13 06:49:35;;;;;;;14.68;12.30;;;21.10;99.90;;;;;;4975410;28;20027;-80
2021/07/13 06:52:01;;;;;;;13.43;11.45;;;21.20;99.90;;;;;;4958084;28;20057;-81
2021/07/13 06:54:27;;;;;;;13.13;11.57;;;21.50;99.90;;;;;;4975336;28;20081;-80
2021/07/13 06:56:53;;;;;;;13.32;11.02;;;21.60;99.90;;;;;;4957945;28;20421;-80
2021/07/13 06:59:19;;;;;;;16.60;11.95;;;21.80;99.90;;;;;;4957829;28;20018;-80
2021/07/13 07:01:44;;;;;;;12.80;10.90;;;21.90;99.90;;;;;;4957779;28;20019;-80
2021/07/13 07:04:10;;;;;;;12.32;10.70;;;21.90;99.90;;;;;;4975040;28;20038;-80
2021/07/13 07:06:35;;;;;;;13.48;11.00;;;22.10;99.90;;;;;;4957702;28;20046;-80
2021/07/13 07:09:01;;;;;;;13.52;11.45;;;22.30;99.90;;;;;;4957679;28;20042;-80
2021/07/13 07:11:27;;;;;;;11.90;10.75;;;22.40;99.90;;;;;;4975088;28;20378;-80
2021/07/13 07:13:52;;;;;;;19.10;12.05;;;22.50;99.90;;;;;;4973580;28;20023;-80
2021/07/13 07:16:18;;;;;;;15.63;10.82;;;22.60;99.90;;;;;;4974959;28;20419;-80
2021/07/13 07:18:44;;;;;;;11.40;10.20;;;22.90;99.90;;;;;;4974827;28;20038;-80
2021/07/13 07:21:11;;;;;;;12.55;10.52;;;23.00;99.90;;;;;;4956828;28;20127;-80
2021/07/13 07:23:37;;;;;;;12.63;11.07;;;23.20;99.90;;;;;;4974414;28;20038;-80
2021/07/13 07:26:03;;;;;;;12.82;10.93;;;23.20;99.90;;;;;;4957440;28;20019;-80
2021/07/13 07:28:28;;;;;;;11.65;10.40;;;23.40;99.90;;;;;;4957215;28;20051;-80
2021/07/13 07:30:54;;;;;;;12.68;11.35;;;23.60;99.90;;;;;;4957341;28;20039;-80
2021/07/13 07:33:20;;;;;;;12.23;9.85;;;23.80;99.90;;;;;;4957324;28;20114;-80
2021/07/13 07:35:45;;;;;;;11.25;10.15;;;24.00;99.90;;;;;;4974608;28;20019;-81
2021/07/13 07:38:12;;;;;;;12.52;11.07;;;24.20;99.90;;;;;;4974582;28;20034;-81
2021/07/13 07:40:38;;;;;;;12.82;10.45;;;24.20;99.90;;;;;;4957356;28;20026;-81
2021/07/13 07:43:04;;;;;;;11.07;9.98;;;24.20;98.90;;;;;;4974394;28;20497;-80
2021/07/13 07:45:31;;;;;;;12.05;10.82;;;24.10;99.90;;;;;;4957126;28;20070;-80
2021/07/13 07:47:56;;;;;;;10.35;9.20;;;24.20;99.90;;;;;;4956949;28;20019;-81
2021/07/13 07:50:24;;;;;;;12.60;11.35;;;24.20;96.30;;;;;;4974609;28;20031;-80
2021/07/13 07:52:50;;;;;;;12.57;11.30;;;24.20;97.80;;;;;;4956981;28;20485;-81
2021/07/13 07:55:19;;;;;;;10.85;9.75;;;24.30;98.80;;;;;;4956961;28;20035;-80
2021/07/13 07:57:45;;;;;;;13.55;10.77;;;24.50;99.90;;;;;;4974226;28;20019;-81
2021/07/13 08:00:12;;;;;;;11.30;10.20;;;24.80;96.30;;;;;;4956774;28;20065;-81
2021/07/13 08:02:39;;;;;;;12.35;10.43;;;25.00;94.70;;;;;;4974096;28;20038;-81
2021/07/13 08:05:06;;;;;;;12.07;10.73;;;25.00;93.70;;;;;;4956716;28;20468;-80
2021/07/13 08:07:32;;;;;;;12.43;9.63;;;25.00;91.20;;;;;;4956759;28;20031;-80
2021/07/13 08:09:58;;;;;;;13.35;10.65;;;25.20;96.50;;;;;;4956705;28;20025;-81
2021/07/13 08:12:24;;;;;;;13.75;10.50;;;25.40;91.00;;;;;;4972894;28;20109;-81
2021/07/13 08:14:50;;;;;;;10.80;9.80;;;25.50;83.80;;;;;;4956695;28;20026;-81
2021/07/13 08:17:16;;;;;;;10.48;9.48;;;25.60;87.30;;;;;;4974146;28;20031;-81
2021/07/13 08:19:41;;;;;;;10.88;9.88;;;25.50;85.10;;;;;;4973974;28;20029;-81
2021/07/13 08:22:10;;;;;;;12.40;11.10;;;25.40;86.70;;;;;;4973931;28;20374;-81
2021/07/13 08:24:37;;;;;;;12.02;10.93;;;25.40;87.90;;;;;;4956563;28;20035;-81
2021/07/13 08:27:04;;;;;;;12.63;10.25;;;25.50;89.00;;;;;;4974021;28;20018;-81
2021/07/13 08:29:30;;;;;;;11.25;9.98;;;25.60;90.00;;;;;;4956762;28;20481;-81
2021/07/13 08:31:59;;;;;;;10.13;9.07;;;25.80;79.30;;;;;;4956487;28;20073;-81
2021/07/13 08:34:30;;;;;;;12.25;10.25;;;25.90;81.60;;;;;;4977289;28;20027;-81
2021/07/13 08:36:56;;;;;;;11.13;10.02;;;26.00;83.50;;;;;;4960457;28;20059;-81
2021/07/13 08:39:23;;;;;;;14.93;10.88;;;25.90;78.20;;;;;;4960436;28;20030;-81
2021/07/13 08:41:48;;;;;;;10.38;9.40;;;25.90;79.10;;;;;;4960341;28;20037;-81
2021/07/13 08:44:15;;;;;;;12.20;10.93;;;25.90;76.80;;;;;;4960307;28;20043;-81
2021/07/13 08:46:42;;;;;;;11.98;10.88;;;26.10;81.50;;;;;;4960337;28;20030;-81
2021/07/13 08:49:09;;;;;;;10.77;9.68;;;26.20;80.00;;;;;;4960341;28;20066;-78
2021/07/13 08:51:36;;;;;;;13.30;10.13;;;26.40;77.00;;;;;;4960208;28;20018;-79
2021/07/13 08:54:02;;;;;;;18.55;9.73;;;26.50;74.10;;;;;;4977277;28;20469;-78
2021/07/13 08:56:32;;;;;;;12.80;10.13;;;26.60;75.00;;;;;;4960107;28;20608;-80
2021/07/13 08:58:59;;;;;;;13.02;10.63;;;26.50;79.10;;;;;;4977329;28;20027;-79
2021/07/13 09:01:24;;;;;;;11.38;10.20;;;26.50;84.50;;;;;;4977463;28;20041;-79
2021/07/13 09:03:55;;;;;;;17.63;11.00;;;26.50;82.30;;;;;;4966851;28;20396;-79
2021/07/13 09:06:23;;;;;;;11.55;10.38;;;26.60;80.60;;;;;;4996832;28;20435;-78
2021/07/13 09:08:49;;;;;;;10.77;9.75;;;26.60;78.30;;;;;;4996614;28;20511;-79
2021/07/13 09:11:20;;;;;;;10.73;9.63;;;26.60;76.50;;;;;;4996444;28;20030;-79
2021/07/13 09:13:50;;;;;;;11.23;10.20;;;26.70;73.70;;;;;;4995354;28;20037;-79
2021/07/13 09:16:21;;;;;;;12.05;10.85;;;26.80;75.60;;;;;;4979187;28;20036;-81
2021/07/13 09:18:50;;;;;;;14.05;11.40;;;26.70;77.50;;;;;;4979073;28;20034;-81
2021/07/13 09:21:33;;;;;;;11.20;9.98;;;26.60;76.30;;;;;;4979129;28;20117;-81
2021/07/13 09:24:17;;;;;;;11.43;9.57;;;26.40;74.90;;;;;;4978845;28;20062;-81
2021/07/13 09:26:43;;;;;;;10.93;9.77;;;26.20;73.40;;;;;;4996470;28;20077;-81
2021/07/13 09:29:26;;;;;;;13.55;9.82;;;26.30;75.40;;;;;;4978491;28;20030;-81
2021/07/13 09:31:52;;;;;;;13.55;10.40;;;26.10;73.30;;;;;;4978401;28;20037;-81
2021/07/13 09:34:18;;;;;;;11.70;10.57;;;26.20;75.80;;;;;;4995863;28;20504;-81
2021/07/13 09:36:54;;;;;;;11.70;10.23;;;26.50;75.10;;;;;;4996217;28;20543;-80
2021/07/13 09:39:24;;;;;;;11.93;10.07;;;26.70;71.60;;;;;;4978730;28;20022;-81
2021/07/13 09:41:55;;;;;;;12.07;10.65;;;26.80;72.30;;;;;;4996132;28;20026;-81
2021/07/13 09:44:24;;;;;;;12.27;8.73;;;26.70;69.60;;;;;;4977565;28;20043;-81
2021/07/13 09:46:51;;;;;;;11.52;10.07;;;26.80;72.30;;;;;;4978362;28;20539;-81
2021/07/13 09:49:19;;;;;;;10.77;9.77;;;26.70;69.00;;;;;;4995982;28;20069;-81
2021/07/13 09:52:04;;;;;;;12.30;9.90;;;26.60;71.00;;;;;;4978407;28;20033;-82
2021/07/13 09:54:31;;;;;;;11.05;9.82;;;26.70;72.80;;;;;;4978480;28;20101;-81
2021/07/13 09:56:58;;;;;;;11.95;9.95;;;26.90;70.60;;;;;;4978370;28;20495;-81
2021/07/13 09:59:25;;;;;;;10.13;9.23;;;27.20;71.80;;;;;;4978392;28;20101;-81
2021/07/13 10:01:50;;;;;;;13.32;10.25;;;27.60;70.20;;;;;;4978262;28;20015;-81
2021/07/13 10:04:16;;;;;;;11.93;9.48;;;27.50;70.20;;;;;;4978226;28;20399;-81
2021/07/13 10:06:45;;;;;;;11.30;10.13;;;27.30;69.00;;;;;;4995682;28;20026;-81
2021/07/13 10:09:11;;;;;;;11.68;10.57;;;27.30;70.10;;;;;;4978201;28;20026;-81
2021/07/13 10:11:39;;;;;;;11.57;10.48;;;27.20;71.20;;;;;;4978098;28;20026;-81
2021/07/13 10:14:09;;;;;;;11.13;10.00;;;27.00;68.60;;;;;;4978125;28;20037;-81
2021/07/13 10:16:35;;;;;;;11.18;10.00;;;27.20;69.50;;;;;;4995534;28;20018;-81
2021/07/13 10:19:02;;;;;;;10.80;9.80;;;27.00;69.50;;;;;;4978003;28;20388;-81
2021/07/13 10:21:29;;;;;;;11.65;10.43;;;26.80;68.70;;;;;;4995487;28;20353;-81
2021/07/13 10:23:56;;;;;;;11.25;10.13;;;26.80;68.00;;;;;;4977739;28;20038;-81
2021/07/13 10:26:44;;;;;;;12.27;10.32;;;26.90;68.70;;;;;;4995248;28;20480;-81
2021/07/13 10:29:32;;;;;;;11.60;9.50;;;26.90;67.70;;;;;;4977872;28;20041;-81
2021/07/13 10:32:08;;;;;;;12.88;10.30;;;27.00;71.10;;;;;;4977754;28;20034;-81
2021/07/13 10:35:14;;;;;;;11.07;9.98;;;27.20;70.70;;;;;;4995126;28;20023;-81
2021/07/13 10:37:46;;;;;;;12.13;9.95;;;27.30;69.50;;;;;;4958580;28;20038;-81
2021/07/13 10:40:25;;;;;;;11.32;10.18;;;27.20;70.90;;;;;;4995101;28;20027;-81
2021/07/13 10:42:58;;;;;;;11.20;9.68;;;27.40;70.70;;;;;;4977411;28;20038;-80
2021/07/13 10:45:42;;;;;;;10.52;9.52;;;27.40;68.80;;;;;;4977507;28;20019;-81
2021/07/13 10:48:14;;;;;;;10.70;9.68;;;27.80;69.80;;;;;;4995058;28;20476;-81
2021/07/13 10:50:44;;;;;;;12.55;10.23;;;27.90;66.40;;;;;;4977334;28;20022;-81
2021/07/13 10:53:23;;;;;;;11.35;10.13;;;28.00;66.00;;;;;;4977832;28;20030;-81
2021/07/13 10:56:13;;;;;;;13.20;10.20;;;28.20;67.00;;;;;;4976951;28;20026;-81
2021/07/13 10:58:40;;;;;;;12.68;10.18;;;28.20;63.40;;;;;;4977209;28;20022;-81
2021/07/13 11:01:08;;;;;;;10.40;9.45;;;28.30;64.60;;;;;;4977283;28;20018;-81
2021/07/13 11:03:49;;;;;;;11.35;9.57;;;28.40;65.20;;;;;;4977115;28;20423;-82
2021/07/13 11:06:20;;;;;;;11.13;10.02;;;28.50;67.00;;;;;;4993272;28;20029;-81
2021/07/13 11:08:52;;;;;;;10.80;9.68;;;28.40;66.80;;;;;;4977139;28;20025;-81
2021/07/13 11:11:21;;;;;;;20.60;10.43;;;28.40;67.60;;;;;;4977199;28;20026;-81
2021/07/13 11:14:06;;;;;;;11.23;9.05;;;28.40;66.20;;;;;;4976955;28;20035;-81
2021/07/13 11:16:37;;;;;;;10.77;9.75;;;28.30;67.10;;;;;;4976955;28;20072;-81
2021/07/13 11:19:12;;;;;;;11.25;10.15;;;28.30;65.70;;;;;;4994380;28;20141;-81
2021/07/13 11:21:41;;;;;;;11.40;10.30;;;28.50;67.80;;;;;;4976647;28;20027;-81
2021/07/13 11:24:06;;;;;;;11.10;9.70;;;28.40;66.40;;;;;;4994140;28;20046;-81
2021/07/13 11:26:34;;;;;;;12.07;10.77;;;28.20;65.40;;;;;;4976850;28;20019;-81
2021/07/13 11:29:04;;;;;;;12.45;10.43;;;28.00;68.60;;;;;;4976715;28;20034;-81
2021/07/13 11:31:40;;;;;;;11.82;10.27;;;27.80;71.10;;;;;;4976661;28;20464;-80
2021/07/13 11:34:14;;;;;;;14.55;11.02;;;27.80;70.80;;;;;;4994131;28;20105;-81
2021/07/13 11:36:47;;;;;;;12.95;11.63;;;27.70;71.10;;;;;;4993967;28;20464;-81
2021/07/13 11:39:15;;;;;;;15.80;11.70;;;27.60;70.40;;;;;;4976609;28;20030;-81
2021/07/13 11:41:43;;;;;;;11.98;10.35;;;27.60;69.90;;;;;;4993910;28;20028;-81
2021/07/13 11:44:12;;;;;;;11.30;10.20;;;27.60;69.50;;;;;;4976414;28;20038;-81
2021/07/13 11:46:42;;;;;;;11.10;10.10;;;27.60;71.30;;;;;;4993916;28;20030;-81
2021/07/13 11:49:10;;;;;;;11.10;10.13;;;27.80;72.50;;;;;;4976513;28;20026;-81
2021/07/13 11:51:42;;;;;;;11.38;10.35;;;27.70;72.00;;;;;;4976156;28;20022;-81
2021/07/13 11:54:13;;;;;;;12.07;10.70;;;27.80;72.10;;;;;;4985106;28;20125;-80
2021/07/13 11:56:40;;;;;;;11.43;10.30;;;28.00;69.90;;;;;;4955666;28;20061;-80
2021/07/13 11:59:07;;;;;;;11.55;10.43;;;28.20;68.30;;;;;;4955194;28;20027;-81
2021/07/13 12:01:34;;;;;;;12.23;10.70;;;28.50;68.90;;;;;;4973560;28;20050;-80
2021/07/13 12:04:12;;;;;;;11.82;10.43;;;28.30;65.00;;;;;;4963382;28;20077;-80
2021/07/13 12:06:41;;;;;;;10.95;9.65;;;28.10;65.10;;;;;;4953256;28;20113;-80
2021/07/13 12:09:11;;;;;;;10.70;9.60;;;28.10;67.90;;;;;;4950019;28;20072;-80
2021/07/13 12:11:40;;;;;;;10.10;9.20;;;28.20;64.70;;;;;;4969547;28;20030;-83
2021/07/13 12:14:10;;;;;;;12.93;9.82;;;28.40;66.40;;;;;;4970680;28;20062;-80
2021/07/13 12:16:37;;;;;;;11.15;10.05;;;28.50;65.60;;;;;;4970825;28;20022;-80
2021/07/13 12:19:05;;;;;;;10.43;9.43;;;28.60;66.50;;;;;;4952019;28;20508;-80
2021/07/13 12:21:33;;;;;;;10.70;9.70;;;28.80;64.00;;;;;;4971896;28;20050;-80
2021/07/13 12:24:06;;;;;;;10.38;9.35;;;28.90;63.40;;;;;;4952870;28;20035;-80
2021/07/13 12:26:36;;;;;;;12.27;9.15;;;29.10;63.30;;;;;;4971262;28;20022;-80
2021/07/13 12:29:15;;;;;;;10.63;8.32;;;29.20;64.30;;;;;;4953903;28;20043;-79
2021/07/13 12:31:44;;;;;;;9.82;8.90;;;28.80;62.90;;;;;;4969221;28;20491;-82
2021/07/13 12:34:18;;;;;;;10.80;9.70;;;28.90;62.60;;;;;;4953315;28;20397;-81
2021/07/13 12:36:44;;;;;;;9.88;8.88;;;29.10;63.70;;;;;;4960903;28;20267;-81